Time;durP1;ratioP1;P1;durP2;ratioP2;P2;SDS_P1;SDS_P2;PMS_P1;PMS_P2;Temp;Humidity;BMP_temperature;BMP_pressure;BME280_temperature;BME280_humidity;BME280_pressure;Samples;Min_cycle;Max_cycle;Signal;HPM_P1;HPM_P2
2022/05/27 00:00:42;;;;;;;4.30;1.80;;;;;;;;;;5032820;28;20076;-72
2022/05/27 00:03:09;;;;;;;8.38;1.83;;;;;;;;;;5024405;28;20106;-70
2022/05/27 00:05:35;;;;;;;10.40;1.75;;;;;;;;;;5025568;28;20049;-75
2022/05/27 00:08:01;;;;;;;5.07;1.40;;;;;;;;;;5023275;28;20582;-71
2022/05/27 00:10:27;;;;;;;4.45;1.70;;;;;;;;;;5023167;28;20128;-72
2022/05/27 00:12:53;;;;;;;6.35;1.70;;;;;;;;;;5024721;28;20049;-73
2022/05/27 00:15:20;;;;;;;4.88;1.60;;;;;;;;;;5026689;28;20087;-72
2022/05/27 00:17:46;;;;;;;10.93;1.90;;;;;;;;;;5028501;28;20560;-73
2022/05/27 00:20:13;;;;;;;8.70;1.65;;;;;;;;;;5021879;28;20041;-74
2022/05/27 00:22:43;;;;;;;7.80;1.95;;;;;;;;;;5025710;28;20496;-72
2022/05/27 00:25:11;;;;;;;5.20;1.90;;;;;;;;;;5022590;28;20041;-69
2022/05/27 00:27:37;;;;;;;5.82;2.00;;;;;;;;;;5023363;28;20506;-71
2022/05/27 00:30:04;;;;;;;8.60;1.73;;;;;;;;;;5020623;28;20528;-71
2022/05/27 00:32:30;;;;;;;8.80;1.85;;;;;;;;;;5020340;28;20033;-72
2022/05/27 00:34:56;;;;;;;5.78;1.55;;;;;;;;;;5024176;28;20052;-72
2022/05/27 00:37:22;;;;;;;4.00;1.50;;;;;;;;;;5025122;28;20114;-71
2022/05/27 00:39:48;;;;;;;9.23;2.30;;;;;;;;;;5025581;28;20058;-72
2022/05/27 00:42:14;;;;;;;3.83;1.80;;;;;;;;;;5026884;28;20072;-72
2022/05/27 00:44:40;;;;;;;6.20;1.50;;;;;;;;;;5028513;28;20098;-70
2022/05/27 00:47:14;;;;;;;7.65;1.65;;;;;;;;;;5021402;28;20046;-73
2022/05/27 00:49:46;;;;;;;14.43;1.80;;;;;;;;;;5026287;28;20156;-70
2022/05/27 00:52:16;;;;;;;9.88;1.92;;;;;;;;;;5026144;28;20049;-72
2022/05/27 00:54:42;;;;;;;7.18;2.17;;;;;;;;;;5022099;28;20041;-71
2022/05/27 00:57:13;;;;;;;6.22;2.20;;;;;;;;;;5021822;28;20137;-73
2022/05/27 00:59:53;;;;;;;8.10;2.25;;;;;;;;;;5027797;28;20136;-72
2022/05/27 01:02:19;;;;;;;5.85;1.85;;;;;;;;;;5024931;28;20045;-71
2022/05/27 01:04:46;;;;;;;5.10;1.75;;;;;;;;;;5026871;28;20270;-71
2022/05/27 01:07:12;;;;;;;6.00;1.95;;;;;;;;;;5027372;28;20449;-72
2022/05/27 01:09:41;;;;;;;8.30;2.50;;;;;;;;;;5023660;28;20136;-72
2022/05/27 01:12:30;;;;;;;5.07;2.13;;;;;;;;;;5025174;28;20049;-71
2022/05/27 01:15:29;;;;;;;5.05;1.83;;;;;;;;;;5021487;28;20052;-74
2022/05/27 01:20:18;;;;;;;8.50;2.00;;;;;;;;;;5018213;28;20062;-73
2022/05/27 01:21:19;;;;;;;7.40;2.13;;;;;;;;;;5021973;28;20038;-71
2022/05/27 01:24:11;;;;;;;6.65;2.08;;;;;;;;;;5040321;28;20115;-72
2022/05/27 01:26:58;;;;;;;4.85;2.40;;;;;;;;;;5022603;28;20125;-72
2022/05/27 01:30:20;;;;;;;7.15;2.58;;;;;;;;;;5025701;28;20057;-72
2022/05/27 01:33:16;;;;;;;4.95;2.47;;;;;;;;;;4927030;29;20067;-72
2022/05/27 01:36:14;;;;;;;7.28;2.45;;;;;;;;;;4926334;29;20043;-70
2022/05/27 01:39:04;;;;;;;9.77;2.75;;;;;;;;;;4927736;29;20054;-71
2022/05/27 01:41:43;;;;;;;11.20;2.35;;;;;;;;;;4917867;29;20043;-72
2022/05/27 01:44:25;;;;;;;7.43;1.88;;;;;;;;;;4925201;29;20044;-71
2022/05/27 01:46:51;;;;;;;5.55;1.70;;;;;;;;;;4923082;29;20039;-70
2022/05/27 01:49:36;;;;;;;10.63;1.80;;;;;;;;;;4927165;29;20043;-71
2022/05/27 01:52:26;;;;;;;4.03;1.67;;;;;;;;;;4925132;29;20059;-70
2022/05/27 01:55:01;;;;;;;3.35;1.60;;;;;;;;;;4921967;29;20131;-70
2022/05/27 01:57:37;;;;;;;9.32;1.88;;;;;;;;;;4921947;29;20115;-69
2022/05/27 02:00:06;;;;;;;5.47;1.80;;;;;;;;;;4924742;29;20066;-72
2022/05/27 02:02:36;;;;;;;7.82;2.22;;;;;;;;;;4916151;29;20051;-73
2022/05/27 02:05:10;;;;;;;5.28;1.73;;;;;;;;;;4927528;29;20062;-70
2022/05/27 02:08:09;;;;;;;7.40;2.30;;;;;;;;;;4935154;29;20445;-71
2022/05/27 02:10:39;;;;;;;5.70;1.85;;;;;;;;;;5010069;28;20045;-70
2022/05/27 02:13:12;;;;;;;8.45;2.10;;;;;;;;;;5029198;28;20057;-70
2022/05/27 02:15:43;;;;;;;6.10;1.65;;;;;;;;;;5025467;28;20061;-68
2022/05/27 02:18:40;;;;;;;9.48;1.60;;;;;;;;;;5027907;28;20046;-72
2022/05/27 02:21:15;;;;;;;3.67;1.65;;;;;;;;;;5027922;28;20124;-71
2022/05/27 02:24:13;;;;;;;4.82;1.80;;;;;;;;;;5029402;28;20091;-71
2022/05/27 02:26:46;;;;;;;5.82;1.73;;;;;;;;;;5025764;28;20053;-71
2022/05/27 02:29:17;;;;;;;7.70;1.92;;;;;;;;;;5024996;28;20041;-72
2022/05/27 02:31:51;;;;;;;6.45;1.95;;;;;;;;;;5032214;28;20042;-76
2022/05/27 02:37:22;;;;;;;6.10;2.08;;;;;;;;;;5019667;28;19948;-70
2022/05/27 02:39:49;;;;;;;5.78;1.70;;;;;;;;;;5027244;28;20063;-70
2022/05/27 02:42:14;;;;;;;5.15;2.00;;;;;;;;;;5033287;28;20119;-71
2022/05/27 02:44:43;;;;;;;7.25;2.13;;;;;;;;;;5027219;28;20041;-71
2022/05/27 02:47:12;;;;;;;6.25;2.47;;;;;;;;;;5031553;28;20057;-71
2022/05/27 02:49:43;;;;;;;9.65;2.10;;;;;;;;;;5037432;28;20048;-71
2022/05/27 02:52:31;;;;;;;6.47;1.95;;;;;;;;;;5039255;28;20046;-71
2022/05/27 02:55:02;;;;;;;4.25;2.15;;;;;;;;;;5039417;28;20080;-69
2022/05/27 02:57:37;;;;;;;6.93;2.00;;;;;;;;;;5029257;28;20067;-71
2022/05/27 03:00:11;;;;;;;7.45;2.60;;;;;;;;;;5029214;28;20067;-71
2022/05/27 03:02:36;;;;;;;5.97;1.88;;;;;;;;;;5028616;28;20099;-71
2022/05/27 03:05:04;;;;;;;4.25;1.80;;;;;;;;;;5039775;28;20148;-72
2022/05/27 03:07:51;;;;;;;9.88;2.80;;;;;;;;;;5031832;28;20096;-70
2022/05/27 03:10:54;;;;;;;6.53;2.03;;;;;;;;;;5030374;28;20052;-71
2022/05/27 03:13:41;;;;;;;8.20;2.10;;;;;;;;;;5029732;28;20053;-71
2022/05/27 03:16:31;;;;;;;4.88;2.25;;;;;;;;;;5029947;28;20410;-72
2022/05/27 03:19:12;;;;;;;7.68;1.85;;;;;;;;;;5016895;28;20111;-68
2022/05/27 03:21:53;;;;;;;10.38;1.88;;;;;;;;;;5028725;28;20495;-71
2022/05/27 03:24:29;;;;;;;5.18;1.80;;;;;;;;;;5019022;28;20046;-72
2022/05/27 03:27:09;;;;;;;7.28;2.42;;;;;;;;;;5034256;28;20045;-71
2022/05/27 03:29:56;;;;;;;11.10;2.50;;;;;;;;;;5024159;28;20565;-71
2022/05/27 03:32:25;;;;;;;10.93;2.33;;;;;;;;;;5021599;28;20046;-71
2022/05/27 03:34:56;;;;;;;8.02;2.28;;;;;;;;;;5025294;28;20071;-71
2022/05/27 03:37:36;;;;;;;6.32;2.40;;;;;;;;;;5028796;28;20084;-71
2022/05/27 03:40:10;;;;;;;6.47;2.13;;;;;;;;;;5027492;28;20329;-68
2022/05/27 03:42:38;;;;;;;6.75;2.45;;;;;;;;;;5027615;28;20052;-72
2022/05/27 03:45:17;;;;;;;7.45;2.30;;;;;;;;;;5025320;28;20388;-70
2022/05/27 03:47:44;;;;;;;9.18;2.60;;;;;;;;;;5025850;28;20046;-71
2022/05/27 03:50:15;;;;;;;7.80;2.13;;;;;;;;;;5043810;28;20046;-74
2022/05/27 03:52:44;;;;;;;6.70;2.15;;;;;;;;;;5028312;28;20041;-71
2022/05/27 03:55:13;;;;;;;4.97;2.22;;;;;;;;;;5023759;28;20132;-71
2022/05/27 03:57:39;;;;;;;9.00;2.88;;;;;;;;;;5021680;28;20049;-72
2022/05/27 04:00:07;;;;;;;7.50;2.38;;;;;;;;;;5030001;28;20107;-70
2022/05/27 04:02:33;;;;;;;6.03;2.20;;;;;;;;;;5024570;28;20230;-68
2022/05/27 04:04:59;;;;;;;19.25;2.45;;;;;;;;;;5024589;28;20496;-70
2022/05/27 04:07:25;;;;;;;6.70;2.53;;;;;;;;;;5037246;28;20057;-70
2022/05/27 04:09:51;;;;;;;9.13;2.60;;;;;;;;;;5032076;28;20113;-70
2022/05/27 04:12:19;;;;;;;8.32;2.65;;;;;;;;;;5023006;28;20095;-71
2022/05/27 04:14:50;;;;;;;10.00;2.97;;;;;;;;;;5025817;28;20209;-69
2022/05/27 04:17:30;;;;;;;6.70;2.90;;;;;;;;;;5041113;28;20090;-70
2022/05/27 04:20:01;;;;;;;16.08;2.92;;;;;;;;;;5027531;28;20143;-69
2022/05/27 04:22:27;;;;;;;5.90;2.70;;;;;;;;;;5028050;28;20148;-70
2022/05/27 04:24:53;;;;;;;9.15;2.60;;;;;;;;;;5032035;28;20037;-70
2022/05/27 04:27:20;;;;;;;6.90;2.90;;;;;;;;;;5029236;28;20033;-69
2022/05/27 04:29:49;;;;;;;8.77;2.60;;;;;;;;;;5034147;28;20048;-70
2022/05/27 04:32:16;;;;;;;9.88;2.72;;;;;;;;;;5025021;28;20402;-74
2022/05/27 04:34:43;;;;;;;9.32;3.30;;;;;;;;;;5033782;28;20451;-69
2022/05/27 04:37:09;;;;;;;8.45;2.80;;;;;;;;;;5041695;28;20124;-71
2022/05/27 04:39:36;;;;;;;9.73;2.90;;;;;;;;;;5036335;28;20049;-71
2022/05/27 04:42:03;;;;;;;9.32;2.60;;;;;;;;;;5029137;28;20123;-71
2022/05/27 04:44:28;;;;;;;10.02;2.60;;;;;;;;;;5023190;28;20053;-70
2022/05/27 04:46:54;;;;;;;8.10;2.90;;;;;;;;;;5030870;28;20045;-69
2022/05/27 04:52:05;;;;;;;9.55;3.10;;;;;;;;;;5026205;28;20474;-71
2022/05/27 04:55:13;;;;;;;11.60;2.90;;;;;;;;;;5014796;28;20047;-66
2022/05/27 04:57:44;;;;;;;11.02;2.95;;;;;;;;;;5035296;28;20132;-64
2022/05/27 05:00:25;;;;;;;11.45;2.80;;;;;;;;;;5033400;28;20096;-66
2022/05/27 05:02:52;;;;;;;9.20;2.92;;;;;;;;;;5025108;28;20049;-65
2022/05/27 05:05:19;;;;;;;15.10;3.30;;;;;;;;;;5027168;28;20046;-63
2022/05/27 05:07:49;;;;;;;9.80;3.00;;;;;;;;;;5023608;28;20045;-64
2022/05/27 05:10:18;;;;;;;9.50;3.63;;;;;;;;;;4985312;28;20041;-64
2022/05/27 05:12:44;;;;;;;9.63;2.70;;;;;;;;;;5008188;28;20110;-64
2022/05/27 05:15:12;;;;;;;6.18;3.00;;;;;;;;;;5011917;28;20057;-66
2022/05/27 05:17:38;;;;;;;12.75;3.63;;;;;;;;;;5015630;28;20054;-66
2022/05/27 05:20:06;;;;;;;13.88;2.72;;;;;;;;;;5010234;28;20189;-65
2022/05/27 05:22:32;;;;;;;18.13;5.15;;;;;;;;;;5010772;28;20099;-65
2022/05/27 05:24:58;;;;;;;7.20;3.35;;;;;;;;;;5005259;28;20049;-65
2022/05/27 05:27:25;;;;;;;14.18;4.07;;;;;;;;;;5008132;28;20054;-63
2022/05/27 05:29:52;;;;;;;11.90;3.72;;;;;;;;;;5008706;28;20127;-66
2022/05/27 05:32:19;;;;;;;11.40;3.75;;;;;;;;;;5009573;28;20052;-67
2022/05/27 05:34:44;;;;;;;9.82;3.67;;;;;;;;;;5019790;28;20128;-68
2022/05/27 05:37:10;;;;;;;9.15;3.58;;;;;;;;;;5015054;28;20128;-66
2022/05/27 05:39:36;;;;;;;9.50;3.30;;;;;;;;;;5010601;28;20400;-63
2022/05/27 05:42:05;;;;;;;15.70;3.92;;;;;;;;;;5015434;28;20065;-62
2022/05/27 05:44:31;;;;;;;7.95;3.83;;;;;;;;;;5013723;28;20463;-65
2022/05/27 05:46:57;;;;;;;18.58;4.40;;;;;;;;;;5014701;28;20880;-67
2022/05/27 05:49:23;;;;;;;18.98;3.85;;;;;;;;;;5017094;28;20060;-67
2022/05/27 05:51:51;;;;;;;13.55;3.90;;;;;;;;;;5013936;28;20402;-65
2022/05/27 05:54:19;;;;;;;13.70;3.90;;;;;;;;;;5017619;28;20053;-65
2022/05/27 05:56:46;;;;;;;13.32;4.22;;;;;;;;;;5017723;28;20123;-65
2022/05/27 05:59:14;;;;;;;10.93;3.65;;;;;;;;;;5012248;28;20046;-67
2022/05/27 06:01:41;;;;;;;19.67;4.07;;;;;;;;;;5017290;28;20057;-63
2022/05/27 06:04:08;;;;;;;15.43;4.60;;;;;;;;;;5019281;28;20127;-64
2022/05/27 06:06:34;;;;;;;13.23;4.38;;;;;;;;;;5012729;28;20316;-65
2022/05/27 06:09:01;;;;;;;9.43;3.80;;;;;;;;;;5013807;28;20041;-63
2022/05/27 06:11:27;;;;;;;12.55;4.65;;;;;;;;;;5018036;28;20483;-65
2022/05/27 06:13:53;;;;;;;9.38;3.72;;;;;;;;;;5015780;28;20068;-66
2022/05/27 06:16:19;;;;;;;11.70;3.90;;;;;;;;;;5016354;28;20053;-65
2022/05/27 06:18:46;;;;;;;14.32;4.05;;;;;;;;;;5015689;28;20045;-68
2022/05/27 06:21:12;;;;;;;15.55;5.00;;;;;;;;;;5014278;28;20054;-69
2022/05/27 06:23:38;;;;;;;12.82;4.38;;;;;;;;;;5018696;28;20064;-70
2022/05/27 06:26:10;;;;;;;14.73;3.70;;;;;;;;;;5016458;28;20041;-66
2022/05/27 06:34:25;;;;;;;11.35;4.95;;;;;;;;;;5014384;28;20111;-67
2022/05/27 06:37:14;;;;;;;15.45;4.70;;;;;;;;;;5006785;28;20546;-64
2022/05/27 06:39:41;;;;;;;11.70;4.38;;;;;;;;;;5015811;28;20057;-67
2022/05/27 06:42:09;;;;;;;15.30;4.43;;;;;;;;;;5014548;28;20171;-64
2022/05/27 06:44:36;;;;;;;16.95;4.30;;;;;;;;;;5016362;28;20058;-61
2022/05/27 06:47:03;;;;;;;16.02;4.13;;;;;;;;;;5016021;28;20590;-68
2022/05/27 06:49:30;;;;;;;12.05;4.13;;;;;;;;;;5029101;28;20057;-71
2022/05/27 06:51:56;;;;;;;18.77;4.30;;;;;;;;;;5038120;28;20042;-67
2022/05/27 06:54:22;;;;;;;15.80;3.88;;;;;;;;;;5023127;28;20652;-68
2022/05/27 06:56:52;;;;;;;11.73;3.53;;;;;;;;;;5022843;28;20045;-67
2022/05/27 06:59:20;;;;;;;12.55;3.90;;;;;;;;;;5026990;28;20057;-68
2022/05/27 07:01:46;;;;;;;11.35;3.60;;;;;;;;;;5027490;28;20112;-70
2022/05/27 07:04:12;;;;;;;11.02;4.07;;;;;;;;;;5022488;28;20052;-68
2022/05/27 07:06:43;;;;;;;10.45;3.83;;;;;;;;;;5030836;28;20045;-68
2022/05/27 07:09:11;;;;;;;20.63;4.43;;;;;;;;;;5024797;28;20096;-66
2022/05/27 07:11:38;;;;;;;11.23;3.67;;;;;;;;;;5025429;28;20056;-71
2022/05/27 07:14:04;;;;;;;10.75;3.80;;;;;;;;;;5033065;28;20117;-69
2022/05/27 07:16:31;;;;;;;14.50;3.15;;;;;;;;;;5029839;28;20511;-68
2022/05/27 07:18:57;;;;;;;14.27;3.20;;;;;;;;;;5027612;28;20050;-67
2022/05/27 07:21:23;;;;;;;21.33;3.85;;;;;;;;;;5027935;28;20048;-66
2022/05/27 07:23:59;;;;;;;11.57;2.90;;;;;;;;;;5028465;28;20075;-68
2022/05/27 07:26:27;;;;;;;12.23;2.75;;;;;;;;;;5024069;28;20077;-67
2022/05/27 07:28:53;;;;;;;11.13;2.75;;;;;;;;;;5027947;28;20084;-68
2022/05/27 07:31:19;;;;;;;7.07;2.50;;;;;;;;;;5032881;28;20065;-70
2022/05/27 07:33:45;;;;;;;12.82;2.67;;;;;;;;;;5030786;28;20466;-68
2022/05/27 07:36:12;;;;;;;12.10;2.60;;;;;;;;;;5028854;28;20486;-71
2022/05/27 07:38:38;;;;;;;13.07;2.80;;;;;;;;;;5027528;28;20077;-69
2022/05/27 07:41:05;;;;;;;13.57;3.08;;;;;;;;;;5030818;28;20045;-70
2022/05/27 07:43:32;;;;;;;10.90;2.70;;;;;;;;;;5030838;28;20041;-67
2022/05/27 07:45:58;;;;;;;11.27;3.03;;;;;;;;;;5028741;28;20119;-68
2022/05/27 07:48:24;;;;;;;9.23;3.17;;;;;;;;;;5031015;28;20159;-71
2022/05/27 07:54:32;;;;;;;15.57;3.17;;;;;;;;;;5027580;28;20107;-72
2022/05/27 07:56:59;;;;;;;11.60;3.13;;;;;;;;;;5027164;28;20076;-70
2022/05/27 07:59:26;;;;;;;10.23;3.20;;;;;;;;;;5033262;28;20046;-71
2022/05/27 08:01:52;;;;;;;15.77;2.90;;;;;;;;;;5033134;28;20072;-71
2022/05/27 08:04:18;;;;;;;12.88;2.70;;;;;;;;;;5028280;28;20064;-73
2022/05/27 08:06:45;;;;;;;11.40;2.90;;;;;;;;;;5029607;28;20053;-69
2022/05/27 08:09:13;;;;;;;9.75;3.03;;;;;;;;;;5027175;28;20071;-69
2022/05/27 08:11:40;;;;;;;11.82;4.70;;;;;;;;;;5027739;28;20435;-70
2022/05/27 08:14:06;;;;;;;10.68;3.30;;;;;;;;;;5031331;28;20037;-72
2022/05/27 08:16:33;;;;;;;13.95;3.20;;;;;;;;;;5044499;28;20041;-72
2022/05/27 08:19:02;;;;;;;12.20;3.00;;;;;;;;;;5027228;28;20439;-71
2022/05/27 08:21:28;;;;;;;8.82;3.13;;;;;;;;;;5029335;28;20045;-71
2022/05/27 08:23:54;;;;;;;8.25;2.78;;;;;;;;;;5028659;28;20048;-69
2022/05/27 08:26:20;;;;;;;17.52;3.65;;;;;;;;;;5022165;28;20049;-69
2022/05/27 08:28:47;;;;;;;15.98;3.30;;;;;;;;;;5033465;28;20472;-74
2022/05/27 08:31:13;;;;;;;11.18;3.13;;;;;;;;;;5020420;28;20057;-70
2022/05/27 08:39:10;;;;;;;10.23;3.10;;;;;;;;;;5026597;28;19960;-70
2022/05/27 08:42:15;;;;;;;16.02;2.92;;;;;;;;;;5033747;28;20113;-71
2022/05/27 08:44:57;;;;;;;6.72;2.78;;;;;;;;;;5031967;28;20044;-70
2022/05/27 08:47:28;;;;;;;15.73;3.30;;;;;;;;;;5035445;28;20033;-70
2022/05/27 08:50:09;;;;;;;10.35;3.20;;;;;;;;;;5030129;28;20045;-70
2022/05/27 08:52:45;;;;;;;13.55;3.42;;;;;;;;;;5027145;28;20106;-69
2022/05/27 09:01:28;;;;;;;9.95;3.55;;;;;;;;;;5023101;28;20049;-69
2022/05/27 09:04:16;;;;;;;12.18;3.40;;;;;;;;;;5030838;28;20491;-70
2022/05/27 09:06:48;;;;;;;9.77;2.38;;;;;;;;;;5027705;28;20243;-72
2022/05/27 09:09:26;;;;;;;11.73;2.80;;;;;;;;;;5038235;28;20049;-70
2022/05/27 09:12:09;;;;;;;9.20;2.88;;;;;;;;;;5027128;28;20075;-71
2022/05/27 09:14:38;;;;;;;9.52;3.38;;;;;;;;;;5035904;28;20115;-73
2022/05/27 09:17:06;;;;;;;14.95;4.55;;;;;;;;;;5036635;28;20045;-70
2022/05/27 09:19:54;;;;;;;8.90;2.58;;;;;;;;;;5029604;28;20073;-72
2022/05/27 09:22:29;;;;;;;9.98;3.22;;;;;;;;;;5031650;28;20112;-71
2022/05/27 09:25:15;;;;;;;11.40;2.90;;;;;;;;;;5022633;28;20140;-71
2022/05/27 09:27:55;;;;;;;13.55;3.33;;;;;;;;;;5029299;28;20048;-73
2022/05/27 09:30:21;;;;;;;12.75;3.00;;;;;;;;;;5029722;28;20076;-70
2022/05/27 09:33:00;;;;;;;14.70;2.55;;;;;;;;;;5038071;28;20052;-72
2022/05/27 09:35:33;;;;;;;9.70;2.97;;;;;;;;;;5028587;28;20422;-73
2022/05/27 09:38:03;;;;;;;8.95;2.63;;;;;;;;;;5032118;28;20042;-71
2022/05/27 09:40:46;;;;;;;41.00;4.05;;;;;;;;;;5032158;28;20099;-79
2022/05/27 09:43:15;;;;;;;9.85;2.53;;;;;;;;;;5048208;28;20307;-72
2022/05/27 09:45:43;;;;;;;12.07;2.50;;;;;;;;;;5035920;28;20045;-70
2022/05/27 09:48:10;;;;;;;9.77;2.53;;;;;;;;;;5031480;28;20113;-70
2022/05/27 09:50:46;;;;;;;9.35;2.50;;;;;;;;;;5030470;28;20041;-71
2022/05/27 09:53:19;;;;;;;15.82;3.38;;;;;;;;;;5029603;28;21005;-70
2022/05/27 09:55:52;;;;;;;13.70;2.72;;;;;;;;;;5029506;28;20269;-71
2022/05/27 09:58:26;;;;;;;8.98;2.40;;;;;;;;;;5033703;28;20041;-70
2022/05/27 10:00:53;;;;;;;14.38;2.63;;;;;;;;;;5034183;28;20042;-71
2022/05/27 10:03:33;;;;;;;8.35;2.30;;;;;;;;;;5039478;28;20036;-71
2022/05/27 10:06:02;;;;;;;9.30;2.50;;;;;;;;;;5033325;28;20052;-71
2022/05/27 10:08:33;;;;;;;12.88;2.45;;;;;;;;;;5039094;28;20048;-72
2022/05/27 10:11:06;;;;;;;7.10;2.38;;;;;;;;;;5029219;28;20124;-73
2022/05/27 10:13:34;;;;;;;8.50;2.28;;;;;;;;;;5028233;28;20053;-71
2022/05/27 10:16:11;;;;;;;6.65;2.40;;;;;;;;;;5029011;28;20413;-70
2022/05/27 10:18:42;;;;;;;12.70;2.20;;;;;;;;;;5030098;28;20037;-72
2022/05/27 10:21:19;;;;;;;12.15;2.83;;;;;;;;;;5031088;28;20053;-72
2022/05/27 10:23:49;;;;;;;6.07;2.00;;;;;;;;;;5026033;28;20157;-72
2022/05/27 10:26:30;;;;;;;9.32;2.38;;;;;;;;;;5026771;28;20049;-71
2022/05/27 10:29:06;;;;;;;5.93;2.08;;;;;;;;;;5039707;28;20047;-73
2022/05/27 10:31:33;;;;;;;5.95;1.65;;;;;;;;;;5031108;28;20102;-73
2022/05/27 10:34:00;;;;;;;8.32;2.17;;;;;;;;;;5030440;28;20045;-73
2022/05/27 10:36:57;;;;;;;5.78;1.80;;;;;;;;;;5030085;28;20041;-71
2022/05/27 10:39:47;;;;;;;9.30;1.73;;;;;;;;;;5019774;28;20052;-72
2022/05/27 10:42:48;;;;;;;11.40;2.10;;;;;;;;;;5026930;28;20491;-72
2022/05/27 10:45:14;;;;;;;12.13;2.25;;;;;;;;;;5025964;28;20057;-71
2022/05/27 10:47:42;;;;;;;5.80;2.00;;;;;;;;;;5035377;28;20741;-72
2022/05/27 10:50:08;;;;;;;8.20;2.10;;;;;;;;;;5044216;28;20068;-71
2022/05/27 10:52:52;;;;;;;9.77;2.33;;;;;;;;;;5033327;28;20075;-72
2022/05/27 10:55:39;;;;;;;14.25;3.83;;;;;;;;;;5025282;28;20971;-74
2022/05/27 11:04:20;;;;;;;7.68;1.88;;;;;;;;;;5028943;28;20041;-71
2022/05/27 11:07:13;;;;;;;6.03;1.80;;;;;;;;;;5024387;28;20045;-71
2022/05/27 11:09:51;;;;;;;3.03;1.70;;;;;;;;;;5027917;28;20041;-72
2022/05/27 11:15:40;;;;;;;;;;;;;;;;;;5023132;28;20038;-73
2022/05/27 11:18:21;;;;;;;9.07;2.30;;;;;;;;;;5040493;28;19979;-71
2022/05/27 11:21:12;;;;;;;9.68;2.40;;;;;;;;;;5024863;28;20136;-72
2022/05/27 11:23:47;;;;;;;9.13;2.70;;;;;;;;;;5032158;28;20156;-72
2022/05/27 11:26:21;;;;;;;15.55;3.30;;;;;;;;;;5028181;28;20404;-71
2022/05/27 11:28:57;;;;;;;10.52;2.97;;;;;;;;;;5022404;28;20117;-73
2022/05/27 11:31:55;;;;;;;6.72;2.72;;;;;;;;;;5027692;28;20044;-74
2022/05/27 11:34:31;;;;;;;9.30;2.72;;;;;;;;;;5027428;28;20081;-75
2022/05/27 11:37:39;;;;;;;10.98;2.72;;;;;;;;;;5024836;28;20061;-73
2022/05/27 11:40:43;;;;;;;13.43;2.90;;;;;;;;;;5049269;28;20045;-75
2022/05/27 11:43:15;;;;;;;9.75;3.20;;;;;;;;;;5025063;28;20049;-76
2022/05/27 11:46:11;;;;;;;9.02;2.47;;;;;;;;;;5026996;28;20102;-75
2022/05/27 11:48:37;;;;;;;9.30;2.83;;;;;;;;;;5020694;28;20487;-75
2022/05/27 11:51:42;;;;;;;8.18;2.90;;;;;;;;;;5028627;28;20060;-75
2022/05/27 11:54:20;;;;;;;8.77;2.97;;;;;;;;;;5028914;28;20060;-76
2022/05/27 11:56:58;;;;;;;16.67;3.50;;;;;;;;;;5028464;28;20049;-75
2022/05/27 11:59:40;;;;;;;7.90;3.17;;;;;;;;;;5028275;28;20056;-76
2022/05/27 12:02:38;;;;;;;10.02;3.42;;;;;;;;;;5021773;28;20049;-77
2022/05/27 12:05:11;;;;;;;13.43;2.83;;;;;;;;;;5026553;28;20053;-76
2022/05/27 12:07:44;;;;;;;11.50;3.50;;;;;;;;;;5033934;28;20454;-77
2022/05/27 12:10:40;;;;;;;11.73;3.42;;;;;;;;;;5033671;28;20077;-76
2022/05/27 12:13:24;;;;;;;14.95;3.28;;;;;;;;;;5030972;28;20045;-76
2022/05/27 12:15:56;;;;;;;7.80;3.00;;;;;;;;;;5033891;28;20543;-75
2022/05/27 12:18:55;;;;;;;7.70;2.65;;;;;;;;;;5021642;28;20038;-76
2022/05/27 12:21:26;;;;;;;13.43;2.60;;;;;;;;;;5018559;28;20041;-76
2022/05/27 12:24:00;;;;;;;7.15;2.95;;;;;;;;;;5030590;28;20049;-75
2022/05/27 12:26:30;;;;;;;9.73;2.72;;;;;;;;;;5040223;28;20054;-75
2022/05/27 12:29:00;;;;;;;6.30;2.58;;;;;;;;;;5033320;28;20083;-75
2022/05/27 12:31:29;;;;;;;8.60;2.60;;;;;;;;;;5038991;28;20076;-77
2022/05/27 12:33:55;;;;;;;5.10;2.10;;;;;;;;;;5027845;28;20282;-78
2022/05/27 12:36:26;;;;;;;8.23;2.88;;;;;;;;;;5020689;28;20141;-78
2022/05/27 12:38:54;;;;;;;9.23;2.95;;;;;;;;;;5012777;28;20441;-76
2022/05/27 12:41:38;;;;;;;8.75;2.42;;;;;;;;;;5028224;28;20052;-77
2022/05/27 12:44:24;;;;;;;4.55;2.08;;;;;;;;;;5032546;28;20060;-78
2022/05/27 12:47:00;;;;;;;4.28;1.67;;;;;;;;;;5012968;28;20058;-76
2022/05/27 12:49:31;;;;;;;6.40;2.00;;;;;;;;;;5019641;28;20068;-78
2022/05/27 12:51:57;;;;;;;6.15;1.90;;;;;;;;;;5020496;28;20042;-76
2022/05/27 12:54:41;;;;;;;9.15;2.40;;;;;;;;;;5010533;28;20554;-77
2022/05/27 13:03:49;;;;;;;13.85;5.28;;;;;;;;;;5023639;28;20429;-77
2022/05/27 13:06:25;;;;;;;6.45;3.00;;;;;;;;;;5034328;28;20045;-81
2022/05/27 13:08:51;;;;;;;5.88;1.90;;;;;;;;;;5029522;28;20049;-78
2022/05/27 13:11:37;;;;;;;7.97;2.80;;;;;;;;;;5033859;28;20235;-78
2022/05/27 13:14:03;;;;;;;9.85;2.88;;;;;;;;;;5033423;28;20056;-78
2022/05/27 13:16:50;;;;;;;5.63;2.13;;;;;;;;;;5044018;28;20402;-78
2022/05/27 13:19:22;;;;;;;8.70;2.78;;;;;;;;;;5034932;28;20149;-77
2022/05/27 13:21:55;;;;;;;7.35;2.08;;;;;;;;;;5032414;28;20049;-79
2022/05/27 13:24:21;;;;;;;5.30;2.10;;;;;;;;;;5033267;28;20509;-81
2022/05/27 13:26:52;;;;;;;8.13;2.17;;;;;;;;;;5031998;28;20438;-79
2022/05/27 13:29:26;;;;;;;4.07;1.92;;;;;;;;;;5033306;28;20038;-77
2022/05/27 13:31:57;;;;;;;13.77;2.90;;;;;;;;;;5029555;28;20497;-78
2022/05/27 13:34:46;;;;;;;9.45;2.72;;;;;;;;;;5027425;28;20041;-79
2022/05/27 13:37:22;;;;;;;8.88;2.50;;;;;;;;;;5040469;28;21717;-80
2022/05/27 13:39:53;;;;;;;7.55;3.15;;;;;;;;;;5037411;28;20037;-80
2022/05/27 13:42:38;;;;;;;7.93;2.70;;;;;;;;;;5038095;28;20042;-78
2022/05/27 13:45:12;;;;;;;7.03;2.00;;;;;;;;;;5034983;28;20045;-78
2022/05/27 13:47:47;;;;;;;11.02;2.22;;;;;;;;;;5033048;28;20243;-80
2022/05/27 13:50:26;;;;;;;5.43;2.40;;;;;;;;;;5031820;28;20053;-80
2022/05/27 13:52:52;;;;;;;8.32;2.53;;;;;;;;;;5040342;28;20049;-79
2022/05/27 13:55:28;;;;;;;5.68;2.13;;;;;;;;;;5039302;28;20060;-79
2022/05/27 13:58:02;;;;;;;7.63;2.13;;;;;;;;;;5037201;28;20127;-81
2022/05/27 14:00:35;;;;;;;5.70;1.83;;;;;;;;;;5036713;28;20076;-80
2022/05/27 14:03:01;;;;;;;6.03;2.10;;;;;;;;;;5041130;28;20057;-80
2022/05/27 14:05:30;;;;;;;4.28;1.60;;;;;;;;;;5045698;28;20061;-82
2022/05/27 14:08:00;;;;;;;5.35;2.10;;;;;;;;;;5045278;28;20112;-81
2022/05/27 14:10:39;;;;;;;10.30;2.05;;;;;;;;;;5048056;28;20073;-81
2022/05/27 14:13:30;;;;;;;7.15;1.98;;;;;;;;;;5040873;28;20281;-79
2022/05/27 14:15:57;;;;;;;9.75;1.95;;;;;;;;;;5044171;28;20099;-80
2022/05/27 14:18:34;;;;;;;5.90;1.70;;;;;;;;;;5047247;28;20145;-82
2022/05/27 14:23:54;;;;;;;5.00;1.55;;;;;;;;;;5049054;28;20048;-79
2022/05/27 14:26:22;;;;;;;9.30;1.30;;;;;;;;;;5050988;28;20057;-79
2022/05/27 14:28:55;;;;;;;4.75;1.65;;;;;;;;;;5039609;28;20104;-81
2022/05/27 14:31:28;;;;;;;3.55;1.38;;;;;;;;;;5042790;28;20130;-80
2022/05/27 14:34:00;;;;;;;4.25;1.30;;;;;;;;;;5047032;28;20049;-81
2022/05/27 14:36:28;;;;;;;6.10;1.58;;;;;;;;;;5048405;28;20053;-82
2022/05/27 14:39:00;;;;;;;9.70;1.60;;;;;;;;;;5041878;28;20034;-80
2022/05/27 14:41:42;;;;;;;7.78;1.80;;;;;;;;;;5047978;28;20044;-80
2022/05/27 14:44:38;;;;;;;5.28;1.30;;;;;;;;;;5047267;28;20301;-81
2022/05/27 14:47:27;;;;;;;4.65;1.63;;;;;;;;;;5036576;28;20393;-81
2022/05/27 14:50:01;;;;;;;5.00;1.85;;;;;;;;;;5044794;28;20046;-80
2022/05/27 14:52:43;;;;;;;7.05;1.70;;;;;;;;;;5057240;28;20044;-78
2022/05/27 14:55:13;;;;;;;4.97;1.55;;;;;;;;;;5049939;28;20108;-80
2022/05/27 14:57:49;;;;;;;5.78;1.48;;;;;;;;;;5050219;28;20045;-81
2022/05/27 15:00:31;;;;;;;3.88;1.40;;;;;;;;;;5043397;28;20048;-80
2022/05/27 15:03:22;;;;;;;3.90;1.30;;;;;;;;;;5043449;28;20076;-80
2022/05/27 15:05:48;;;;;;;4.88;1.60;;;;;;;;;;5045387;28;20053;-81
2022/05/27 15:08:22;;;;;;;6.82;1.83;;;;;;;;;;5049505;28;20545;-79
2022/05/27 15:11:06;;;;;;;9.38;1.40;;;;;;;;;;5048194;28;20045;-79
2022/05/27 15:13:47;;;;;;;3.83;1.45;;;;;;;;;;5044901;28;20037;-83
2022/05/27 15:16:15;;;;;;;5.65;1.75;;;;;;;;;;5031748;28;20033;-81
2022/05/27 15:18:56;;;;;;;7.15;1.55;;;;;;;;;;5040268;28;20052;-80
2022/05/27 15:21:22;;;;;;;3.70;1.10;;;;;;;;;;5038053;28;20050;-79
2022/05/27 15:23:58;;;;;;;3.47;1.30;;;;;;;;;;5041842;28;20098;-79
2022/05/27 15:35:07;;;;;;;15.35;1.70;;;;;;;;;;5029780;28;20049;-80
2022/05/27 15:37:34;;;;;;;5.90;1.42;;;;;;;;;;5042900;28;20135;-83
2022/05/27 15:40:00;;;;;;;5.65;1.15;;;;;;;;;;5032963;28;20046;-80
2022/05/27 15:42:26;;;;;;;8.00;1.42;;;;;;;;;;5039517;28;20076;-82
2022/05/27 15:44:54;;;;;;;5.90;1.48;;;;;;;;;;5054816;28;20351;-81
2022/05/27 15:47:21;;;;;;;7.15;1.45;;;;;;;;;;5055346;28;20048;-81
2022/05/27 15:49:47;;;;;;;2.97;1.40;;;;;;;;;;5039586;28;20041;-83
2022/05/27 15:52:14;;;;;;;4.63;1.25;;;;;;;;;;5039652;28;20259;-80
2022/05/27 15:54:41;;;;;;;3.65;1.80;;;;;;;;;;5039903;28;20053;-80
2022/05/27 15:57:07;;;;;;;6.00;1.45;;;;;;;;;;5043890;28;20053;-81
2022/05/27 15:59:32;;;;;;;5.18;1.55;;;;;;;;;;5045772;28;20144;-81
2022/05/27 16:01:58;;;;;;;6.57;1.58;;;;;;;;;;5044490;28;20045;-82
2022/05/27 16:04:25;;;;;;;11.20;1.92;;;;;;;;;;5042326;28;20121;-83
2022/05/27 16:06:51;;;;;;;11.68;1.95;;;;;;;;;;5035167;28;20048;-81
2022/05/27 16:09:18;;;;;;;5.57;1.50;;;;;;;;;;5038307;28;20352;-83